Clyde, Michigan
Current Conditions -  °F | °C
As of 8:16 PM on Monday 20 Oct 2014 (Local Time) from KPHN Reporting Station
Haze Haze  
Wind Chill: 50°   Ceiling: 3100
Heat Index: 50°   Visibility: 5mi
Dew Point: 50°   Wind: 0mph
Humidity: 100%   Direction: NA
Pressure: 29.83"   Gusts: NA
Location:  43.0355°N, 82.5759°W
Report Text: KPHN 210016Z AUTO 00000KT 5SM BR SCT022 BKN031 OVC070 10/10 A2983 RMK AO2
Loading
Personal Weather Stations






























Interactive Weather Map
Tropical Storm Tracking
New forecast layout! Learn more

10-Day Weather Forecast

Advertisements
Track Severe Weather on mobile